Lakenan, Missouri
Current Conditions -  °F | °C
As of 5:35 AM on Saturday 20 Dec 2014 (Local Time) from KHAE Reporting Station
Overcast Overcast  
Wind Chill:   Ceiling: 800
Heat Index:   Visibility: 7mi
Dew Point: -2°   Wind: 3mph
Humidity: 81%   Direction: 140°SE
Pressure: 30.23"   Gusts: NA
Location:  39.7104°N, 92.0292°W
Report Text: KHAE 201135Z AUTO 14003KT 7SM OVC008 01/M02 A3023 RMK AO2
Loading
Personal Weather Stations






























Interactive Weather Map New forecast layout! Learn more

10-Day Weather Forecast

Advertisements
Track Severe Weather on mobile